European Seaway — MPDG3 — position and weather

sailwx.info

Track history (hours):
 
Tides and Currents Weather Stations Pressure Air Temp Water Temp Dewpoint Dewpoint Depression Visibility Wind Speed Wind Dir Waves Ship Positions

European Seaway

Operator: P & O Ferries

Last reported at 2017-Jan-23 16:33 UTC. Time now 2017-Jan-23 16:46 UTC.
Position N 51°04' E 001°28'.

Length 179 m; draft 6.2 m.

Type: Passenger vessel. MMSI: 232001040.

Date/timePositionNaut miles runAvg speedWind from/ knotsBaromVisibWave heightAir tempDewpointWater temp
2017-Jan-23 16:33N 51°04' E 001°28'6 6.1
2017-Jan-23 15:33N 51°07' E 001°20'2 2.5
2017-Jan-23 14:33N 51°08' E 001°24'3 2.8
2017-Jan-23 13:33N 51°06' E 001°28'1515.2
2017-Jan-23 12:34N 50°58' E 001°49'2 1.5
2017-Jan-23 11:33N 50°58' E 001°51'1515.3
2017-Jan-23 10:34N 51°03' E 001°28'7 6.6
2017-Jan-23 09:33N 51°07' E 001°20'9 9.1
2017-Jan-23 08:33N 51°05' E 001°34'1312.9
2017-Jan-23 07:33N 50°58' E 001°52'0 0.0
2017-Jan-23 06:33N 50°58' E 001°52'0 0.0
2017-Jan-23 05:33N 50°58' E 001°52'0 0.0
2017-Jan-23 04:33N 50°58' E 001°52'0 0.0
2017-Jan-23 03:33N 50°58' E 001°52'0 0.0
2017-Jan-23 02:33N 50°58' E 001°52'0 0.0
2017-Jan-23 01:33N 50°58' E 001°52'0 0.0
2017-Jan-23 00:33N 50°58' E 001°52'0 0.0
2017-Jan-22 23:33N 50°58' E 001°52'0 0.0
2017-Jan-22 22:33N 50°58' E 001°52'0 0.0
2017-Jan-22 21:33N 50°58' E 001°52'0 0.1
2017-Jan-22 20:33N 50°58' E 001°52'1717.4
2017-Jan-22 19:33N 51°03' E 001°25'5 5.2
2017-Jan-22 18:33N 51°07' E 001°20'1313.1
2017-Jan-22 17:33N 51°02' E 001°39'9 8.6
2017-Jan-22 16:33N 50°58' E 001°51'8 8.3
2017-Jan-22 15:33N 50°60' E 001°38'1413.6
2017-Jan-22 14:33N 51°07' E 001°20'6 5.8
2017-Jan-22 13:33N 51°05' E 001°28'1615.8
2017-Jan-22 12:33N 50°58' E 001°51'0 0.0
2017-Jan-22 11:33N 50°58' E 001°51'1212.6
2017-Jan-22 10:33N 51°02' E 001°32'9 9.4
2017-Jan-22 09:33N 51°07' E 001°20'9 8.8
2017-Jan-22 08:33N 51°03' E 001°33'1312.6
2017-Jan-22 07:33N 50°58' E 001°51'4 4.3
2017-Jan-22 06:34N 51°00' E 001°46'0 0.1
2017-Jan-22 05:32N 51°00' E 001°46'0 0.1
2017-Jan-22 04:32N 51°00' E 001°46'0 0.0
2017-Jan-22 03:32N 51°00' E 001°46'0 0.0
2017-Jan-22 02:32N 51°00' E 001°46'0 0.0
2017-Jan-22 01:32N 51°00' E 001°46'0 0.1
2017-Jan-22 00:32N 51°00' E 001°46'0 0.1
2017-Jan-21 23:32N 51°01' E 001°46'0 0.1
2017-Jan-21 22:32N 51°01' E 001°46'0 0.0
2017-Jan-21 21:32N 51°01' E 001°46'0 0.0
2017-Jan-21 20:32N 51°01' E 001°46'3 3.1
2017-Jan-21 19:33N 50°58' E 001°49'2 1.6
2017-Jan-21 18:33N 50°58' E 001°52'0 0.0
2017-Jan-21 17:33N 50°58' E 001°52'0 0.0
2017-Jan-21 16:33N 50°58' E 001°52'1514.8
2017-Jan-21 15:33N 51°03' E 001°29'7 7.4
2017-Jan-21 14:33N 51°07' E 001°20'1111.5
2017-Jan-21 13:34N 51°02' E 001°36'1110.6
2017-Jan-21 12:33N 50°58' E 001°52'5 5.3
2017-Jan-21 11:33N 50°58' E 001°43'1717.1
2017-Jan-21 10:33N 51°07' E 001°20'0 0.3
2017-Jan-21 09:33N 51°07' E 001°20'1313.0
2017-Jan-21 08:33N 51°01' E 001°38'9 9.0
2017-Jan-21 07:34N 50°58' E 001°52'7 7.2
2017-Jan-21 06:34N 50°58' E 001°40'1615.9
2017-Jan-21 05:33N 51°07' E 001°20'0 0.0
2017-Jan-21 04:34N 51°07' E 001°20'0 0.4
2017-Jan-21 03:33N 51°07' E 001°21'1918.8
2017-Jan-21 02:33N 50°58' E 001°47'3 3.1
2017-Jan-21 01:33N 50°58' E 001°52'0 0.0
2017-Jan-21 00:33N 50°58' E 001°52'0 0.0
2017-Jan-20 23:33N 50°58' E 001°52'0 0.0
2017-Jan-20 22:33N 50°58' E 001°52'0 0.0
2017-Jan-20 21:33N 50°58' E 001°52'1 0.9
2017-Jan-20 20:34N 50°58' E 001°50'1616.0
2017-Jan-20 19:34N 51°05' E 001°27'5 5.1
2017-Jan-20 18:34N 51°07' E 001°20'1211.8
2017-Jan-20 17:34N 51°02' E 001°37'1010.1
2017-Jan-20 16:33N 50°58' E 001°52'8 7.8
2017-Jan-20 15:33N 50°59' E 001°39'1514.7
2017-Jan-20 14:33N 51°07' E 001°20'3 3.4
2017-Jan-20 13:34N 51°07' E 001°25'1818.0
2017-Jan-20 12:33N 50°58' E 001°51'0 0.5
2017-Jan-20 11:33N 50°58' E 001°52'1515.5
2017-Jan-20 10:33N 51°03' E 001°29'7 6.7
2017-Jan-20 09:33N 51°07' E 001°20'10 9.8
2017-Jan-20 08:33N 51°03' E 001°34'1212.3
2017-Jan-20 07:34N 50°58' E 001°52'0 0.1
2017-Jan-20 06:33N 50°58' E 001°52'1716.9
2017-Jan-20 05:34N 51°04' E 001°27'5 5.0
2017-Jan-20 04:33N 51°07' E 001°20'6 6.2
2017-Jan-20 03:33N 51°05' E 001°29'1615.7
2017-Jan-20 02:33N 50°58' E 001°52'0 0.1
2017-Jan-20 01:33N 50°58' E 001°52'0 0.0
2017-Jan-20 00:34N 50°58' E 001°52'0 0.0
2017-Jan-19 23:34N 50°58' E 001°52'0 0.0
2017-Jan-19 22:33N 50°58' E 001°52'0 0.0
2017-Jan-19 21:34N 50°58' E 001°52'2 2.2
2017-Jan-19 20:33N 50°58' E 001°48'1717.2
2017-Jan-19 19:33N 51°06' E 001°24'3 2.8
2017-Jan-19 18:33N 51°07' E 001°20'1312.8
2017-Jan-19 17:33N 51°01' E 001°38'9 8.9
2017-Jan-19 16:33N 50°58' E 001°51'8 8.1
2017-Jan-19 15:34N 50°58' E 001°38'1514.6
2017-Jan-19 14:33N 51°07' E 001°20'3 3.2
2017-Jan-19 13:33N 51°06' E 001°25'1818.2
2017-Jan-19 12:34N 50°58' E 001°51'0 0.2
2017-Jan-19 11:33N 50°58' E 001°50'1616.0
2017-Jan-19 10:33N 51°04' E 001°27'5 5.4
2017-Jan-19 09:34N 51°07' E 001°20'7 7.2
2017-Jan-19 08:34N 51°04' E 001°30'1414.3
2017-Jan-19 07:34N 50°58' E 001°51'0 0.4
2017-Jan-19 06:34N 50°58' E 001°51'1716.6
2017-Jan-19 05:33N 51°05' E 001°26'5 4.7
2017-Jan-19 04:33N 51°07' E 001°20'8 8.5
2017-Jan-19 03:34N 51°04' E 001°32'1313.4
2017-Jan-19 02:33N 50°58' E 001°52'0 0.0
2017-Jan-19 01:33N 50°58' E 001°52'0 0.0
2017-Jan-19 00:34N 50°58' E 001°52'0 0.0
2017-Jan-18 23:33N 50°58' E 001°52'0 0.0
2017-Jan-18 22:33N 50°58' E 001°52'0 0.0
2017-Jan-18 21:33N 50°58' E 001°52'1111.4
2017-Jan-18 20:33N 51°01' E 001°34'1111.0
2017-Jan-18 19:33N 51°07' E 001°20'7 7.0
2017-Jan-18 18:33N 51°05' E 001°30'1514.5
2017-Jan-18 17:33N 50°58' E 001°51'4 3.6
2017-Jan-18 16:33N 50°58' E 001°45'1818.5
2017-Jan-18 15:34N 51°07' E 001°20'0 0.0
2017-Jan-18 14:33N 51°07' E 001°20'1615.9
2017-Jan-18 13:33N 50°60' E 001°42'6 6.2
2017-Jan-18 12:33N 50°58' E 001°52'0 0.1
2017-Jan-18 11:33N 50°58' E 001°52'1515.3
2017-Jan-18 10:34N 51°03' E 001°29'7 6.8
2017-Jan-18 09:33N 51°07' E 001°20'9 9.2
2017-Jan-18 08:33N 51°03' E 001°33'1312.8
2017-Jan-18 07:33N 50°58' E 001°52'3 2.7
2017-Jan-18 06:33N 50°58' E 001°47'1818.0
2017-Jan-18 05:33N 51°07' E 001°22'2 1.6
2017-Jan-18 04:33N 51°07' E 001°20'6 5.7
2017-Jan-18 03:33N 51°05' E 001°28'1616.1
2017-Jan-18 02:34N 50°58' E 001°51'0 0.2
2017-Jan-18 01:33N 50°58' E 001°52'0 0.0
2017-Jan-18 00:33N 50°58' E 001°52'0 0.0
2017-Jan-17 23:33N 50°58' E 001°52'0 0.0
2017-Jan-17 22:33N 50°58' E 001°52'1 0.9
2017-Jan-17 21:33N 50°58' E 001°50'1616.3
2017-Jan-17 20:33N 51°04' E 001°26'5 4.9
2017-Jan-17 19:33N 51°07' E 001°20'1111.3
2017-Jan-17 18:33N 51°03' E 001°37'1110.7
2017-Jan-17 17:33N 50°58' E 001°52'4 3.6
2017-Jan-17 16:34N 50°58' E 001°46'1818.3
2017-Jan-17 15:33N 51°07' E 001°21'1 0.5
2017-Jan-17 14:33N 51°07' E 001°20'1111.4
2017-Jan-17 13:33N 51°02' E 001°36'1110.6
2017-Jan-17 12:33N 50°58' E 001°52'5 5.5
2017-Jan-17 11:33N 50°58' E 001°43'1717.3
2017-Jan-17 10:33N 51°07' E 001°20'0 0.0
2017-Jan-17 09:33N 51°07' E 001°20'1414.1
2017-Jan-17 08:33N 51°01' E 001°40'8 7.8
2017-Jan-17 07:33N 50°58' E 001°52'8 7.6
2017-Jan-17 06:34N 50°59' E 001°40'1515.0
2017-Jan-17 05:33N 51°07' E 001°20'0 0.2
2017-Jan-17 04:28N 51°07' E 001°20'910.1
2017-Jan-17 03:33N 51°04' E 001°34'1312.7
2017-Jan-17 02:33N 50°58' E 001°52'0 0.1
2017-Jan-17 01:33N 50°58' E 001°52'0 0.0
2017-Jan-17 00:33N 50°58' E 001°52'0 0.0
2017-Jan-16 23:33N 50°58' E 001°52'0 0.0
2017-Jan-16 22:33N 50°58' E 001°52'0 0.0
2017-Jan-16 21:33N 50°58' E 001°52'7 7.0
2017-Jan-16 20:33N 50°58' E 001°41'1615.7
2017-Jan-16 19:33N 51°07' E 001°20'0 0.1
2017-Jan-16 18:33N 51°07' E 001°20'1414.1
2017-Jan-16 17:34N 51°01' E 001°40'8 7.9
2017-Jan-16 16:33N 50°58' E 001°52'8 8.4
2017-Jan-16 15:33N 50°59' E 001°38'1414.1
2017-Jan-16 14:33N 51°07' E 001°20'4 3.9
2017-Jan-16 13:33N 51°06' E 001°26'1716.8
2017-Jan-16 12:33N 50°58' E 001°50'1 0.8
2017-Jan-16 11:33N 50°58' E 001°51'1514.8
2017-Jan-16 10:33N 51°02' E 001°28'7 7.4
2017-Jan-16 09:33N 51°07' E 001°20'8 8.4
2017-Jan-16 08:34N 51°03' E 001°32'1413.7
2017-Jan-16 07:34N 50°58' E 001°52'0 0.0
2017-Jan-16 06:34N 50°58' E 001°52'0 0.0
2017-Jan-16 05:34N 50°58' E 001°52'0 0.0
2017-Jan-16 04:33N 50°58' E 001°52'0 0.0
2017-Jan-16 03:34N 50°58' E 001°52'0 0.0
2017-Jan-16 02:34N 50°58' E 001°52'0 0.0
2017-Jan-16 01:34N 50°58' E 001°52'0 0.0
2017-Jan-16 00:34N 50°58' E 001°52'0 0.0
2017-Jan-15 23:34N 50°58' E 001°52'0 0.0
2017-Jan-15 22:33N 50°58' E 001°52'0 0.0
2017-Jan-15 21:34N 50°58' E 001°52'1 1.3
2017-Jan-15 20:33N 50°58' E 001°50'1514.5
2017-Jan-15 19:33N 51°03' E 001°28'6 6.4
2017-Jan-15 18:33N 51°07' E 001°20'1313.1
2017-Jan-15 17:33N 51°01' E 001°38'9 8.7
2017-Jan-15 16:33N 50°58' E 001°51'1010.0
2017-Jan-15 15:33N 51°00' E 001°35'1212.0
2017-Jan-15 14:33N 51°07' E 001°20'6 6.0
2017-Jan-15 13:33N 51°05' E 001°29'1414.3
2017-Jan-15 12:33N 50°58' E 001°49'1 1.3
2017-Jan-15 11:33N 50°58' E 001°51'1514.5
2017-Jan-15 10:33N 51°04' E 001°30'7 7.0
2017-Jan-15 09:33N 51°07' E 001°20'1010.5
2017-Jan-15 08:33N 51°02' E 001°35'1111.2
2017-Jan-15 07:33N 50°58' E 001°51'0 0.5
2017-Jan-15 06:33N 50°58' E 001°52'0 0.0
2017-Jan-15 05:33N 50°58' E 001°52'0 0.0
2017-Jan-15 04:33N 50°58' E 001°52'0 0.0
2017-Jan-15 03:33N 50°58' E 001°52'0 0.0
2017-Jan-15 02:33N 50°58' E 001°52'0 0.0
2017-Jan-15 01:33N 50°58' E 001°52'0 0.0
2017-Jan-15 00:33N 50°58' E 001°52'0 0.0
2017-Jan-14 23:33N 50°58' E 001°52'0 0.0
2017-Jan-14 22:33N 50°58' E 001°52'0 0.0
2017-Jan-14 21:33N 50°58' E 001°52'1 1.3
2017-Jan-14 20:33N 50°58' E 001°50'1413.8
2017-Jan-14 19:33N 51°03' E 001°29'7 7.0
2017-Jan-14 18:33N 51°07' E 001°20'1313.3
2017-Jan-14 17:33N 51°02' E 001°39'9 8.5
2017-Jan-14 16:33N 50°58' E 001°51'1211.6
2017-Jan-14 15:34N 51°01' E 001°33'1110.3
2017-Jan-14 14:32N 51°07' E 001°20'7 7.5
2017-Jan-14 13:33N 51°06' E 001°31'1514.5
2017-Jan-14 12:33N 50°58' E 001°51'0 0.2
2017-Jan-14 11:33N 50°58' E 001°51'1717.2
2017-Jan-14 10:33N 51°05' E 001°26'5 4.7
2017-Jan-14 09:33N 51°07' E 001°20'1312.8
2017-Jan-14 08:33N 51°01' E 001°38'9 9.2
2017-Jan-14 07:33N 50°58' E 001°52'6 5.8
2017-Jan-14 06:34N 50°58' E 001°42'1716.8
2017-Jan-14 05:33N 51°07' E 001°20'0 0.0
2017-Jan-14 04:33N 51°07' E 001°20'6 6.4
2017-Jan-14 03:33N 51°05' E 001°29'15 3.8
2017-Jan-13 23:33N 50°58' E 001°51'7 6.9
2017-Jan-13 22:33N 50°58' E 001°40'1615.7
2017-Jan-13 21:33N 51°07' E 001°20'1 1.3
2017-Jan-13 20:34N 51°07' E 001°22'1817.8
2017-Jan-13 19:33N 50°58' E 001°47'3 3.2
2017-Jan-13 18:33N 50°58' E 001°52'1211.6
2017-Jan-13 17:33N 51°01' E 001°34'  
Track history (hours):
 
Tides and Currents Weather Stations Pressure Air Temp Water Temp Dewpoint Dewpoint Depression Visibility Wind Speed Wind Dir Waves Ship Positions

European Seaway

Operator: P & O Ferries

Last reported at 2017-Jan-23 16:33 UTC. Time now 2017-Jan-23 16:46 UTC.
Position N 51°04' E 001°28'.

Length 179 m; draft 6.2 m.

Type: Passenger vessel. MMSI: 232001040.

Date/timePositionNaut miles runAvg speedWind from/ knotsBaromVisibWave heightAir tempDewpointWater temp
2017-Jan-23 16:33N 51°04' E 001°28'6 6.1
2017-Jan-23 15:33N 51°07' E 001°20'2 2.5
2017-Jan-23 14:33N 51°08' E 001°24'3 2.8
2017-Jan-23 13:33N 51°06' E 001°28'1515.2
2017-Jan-23 12:34N 50°58' E 001°49'2 1.5
2017-Jan-23 11:33N 50°58' E 001°51'1515.3
2017-Jan-23 10:34N 51°03' E 001°28'7 6.6
2017-Jan-23 09:33N 51°07' E 001°20'9 9.1
2017-Jan-23 08:33N 51°05' E 001°34'1312.9
2017-Jan-23 07:33N 50°58' E 001°52'0 0.0
2017-Jan-23 06:33N 50°58' E 001°52'0 0.0
2017-Jan-23 05:33N 50°58' E 001°52'0 0.0
2017-Jan-23 04:33N 50°58' E 001°52'0 0.0
2017-Jan-23 03:33N 50°58' E 001°52'0 0.0
2017-Jan-23 02:33N 50°58' E 001°52'0 0.0
2017-Jan-23 01:33N 50°58' E 001°52'0 0.0
2017-Jan-23 00:33N 50°58' E 001°52'0 0.0
2017-Jan-22 23:33N 50°58' E 001°52'0 0.0
2017-Jan-22 22:33N 50°58' E 001°52'0 0.0
2017-Jan-22 21:33N 50°58' E 001°52'0 0.1
2017-Jan-22 20:33N 50°58' E 001°52'1717.4
2017-Jan-22 19:33N 51°03' E 001°25'5 5.2
2017-Jan-22 18:33N 51°07' E 001°20'1313.1
2017-Jan-22 17:33N 51°02' E 001°39'9 8.6
2017-Jan-22 16:33N 50°58' E 001°51'8 8.3
2017-Jan-22 15:33N 50°60' E 001°38'1413.6
2017-Jan-22 14:33N 51°07' E 001°20'6 5.8
2017-Jan-22 13:33N 51°05' E 001°28'1615.8
2017-Jan-22 12:33N 50°58' E 001°51'0 0.0
2017-Jan-22 11:33N 50°58' E 001°51'1212.6
2017-Jan-22 10:33N 51°02' E 001°32'9 9.4
2017-Jan-22 09:33N 51°07' E 001°20'9 8.8
2017-Jan-22 08:33N 51°03' E 001°33'1312.6
2017-Jan-22 07:33N 50°58' E 001°51'4 4.3
2017-Jan-22 06:34N 51°00' E 001°46'0 0.1
2017-Jan-22 05:32N 51°00' E 001°46'0 0.1
2017-Jan-22 04:32N 51°00' E 001°46'0 0.0
2017-Jan-22 03:32N 51°00' E 001°46'0 0.0
2017-Jan-22 02:32N 51°00' E 001°46'0 0.0
2017-Jan-22 01:32N 51°00' E 001°46'0 0.1
2017-Jan-22 00:32N 51°00' E 001°46'0 0.1
2017-Jan-21 23:32N 51°01' E 001°46'0 0.1
2017-Jan-21 22:32N 51°01' E 001°46'0 0.0
2017-Jan-21 21:32N 51°01' E 001°46'0 0.0
2017-Jan-21 20:32N 51°01' E 001°46'3 3.1
2017-Jan-21 19:33N 50°58' E 001°49'2 1.6
2017-Jan-21 18:33N 50°58' E 001°52'0 0.0
2017-Jan-21 17:33N 50°58' E 001°52'0 0.0
2017-Jan-21 16:33N 50°58' E 001°52'1514.8
2017-Jan-21 15:33N 51°03' E 001°29'7 7.4
2017-Jan-21 14:33N 51°07' E 001°20'1111.5
2017-Jan-21 13:34N 51°02' E 001°36'1110.6
2017-Jan-21 12:33N 50°58' E 001°52'5 5.3
2017-Jan-21 11:33N 50°58' E 001°43'1717.1
2017-Jan-21 10:33N 51°07' E 001°20'0 0.3
2017-Jan-21 09:33N 51°07' E 001°20'1313.0
2017-Jan-21 08:33N 51°01' E 001°38'9 9.0
2017-Jan-21 07:34N 50°58' E 001°52'7 7.2
2017-Jan-21 06:34N 50°58' E 001°40'1615.9
2017-Jan-21 05:33N 51°07' E 001°20'0 0.0
2017-Jan-21 04:34N 51°07' E 001°20'0 0.4
2017-Jan-21 03:33N 51°07' E 001°21'1918.8
2017-Jan-21 02:33N 50°58' E 001°47'3 3.1
2017-Jan-21 01:33N 50°58' E 001°52'0 0.0
2017-Jan-21 00:33N 50°58' E 001°52'0 0.0
2017-Jan-20 23:33N 50°58' E 001°52'0 0.0
2017-Jan-20 22:33N 50°58' E 001°52'0 0.0
2017-Jan-20 21:33N 50°58' E 001°52'1 0.9
2017-Jan-20 20:34N 50°58' E 001°50'1616.0
2017-Jan-20 19:34N 51°05' E 001°27'5 5.1
2017-Jan-20 18:34N 51°07' E 001°20'1211.8
2017-Jan-20 17:34N 51°02' E 001°37'1010.1
2017-Jan-20 16:33N 50°58' E 001°52'8 7.8
2017-Jan-20 15:33N 50°59' E 001°39'1514.7
2017-Jan-20 14:33N 51°07' E 001°20'3 3.4
2017-Jan-20 13:34N 51°07' E 001°25'1818.0
2017-Jan-20 12:33N 50°58' E 001°51'0 0.5
2017-Jan-20 11:33N 50°58' E 001°52'1515.5
2017-Jan-20 10:33N 51°03' E 001°29'7 6.7
2017-Jan-20 09:33N 51°07' E 001°20'10 9.8
2017-Jan-20 08:33N 51°03' E 001°34'1212.3
2017-Jan-20 07:34N 50°58' E 001°52'0 0.1
2017-Jan-20 06:33N 50°58' E 001°52'1716.9
2017-Jan-20 05:34N 51°04' E 001°27'5 5.0
2017-Jan-20 04:33N 51°07' E 001°20'6 6.2
2017-Jan-20 03:33N 51°05' E 001°29'1615.7
2017-Jan-20 02:33N 50°58' E 001°52'0 0.1
2017-Jan-20 01:33N 50°58' E 001°52'0 0.0
2017-Jan-20 00:34N 50°58' E 001°52'0 0.0
2017-Jan-19 23:34N 50°58' E 001°52'0 0.0
2017-Jan-19 22:33N 50°58' E 001°52'0 0.0
2017-Jan-19 21:34N 50°58' E 001°52'2 2.2
2017-Jan-19 20:33N 50°58' E 001°48'1717.2
2017-Jan-19 19:33N 51°06' E 001°24'3 2.8
2017-Jan-19 18:33N 51°07' E 001°20'1312.8
2017-Jan-19 17:33N 51°01' E 001°38'9 8.9
2017-Jan-19 16:33N 50°58' E 001°51'8 8.1
2017-Jan-19 15:34N 50°58' E 001°38'1514.6
2017-Jan-19 14:33N 51°07' E 001°20'3 3.2
2017-Jan-19 13:33N 51°06' E 001°25'1818.2
2017-Jan-19 12:34N 50°58' E 001°51'0 0.2
2017-Jan-19 11:33N 50°58' E 001°50'1616.0
2017-Jan-19 10:33N 51°04' E 001°27'5 5.4
2017-Jan-19 09:34N 51°07' E 001°20'7 7.2
2017-Jan-19 08:34N 51°04' E 001°30'1414.3
2017-Jan-19 07:34N 50°58' E 001°51'0 0.4
2017-Jan-19 06:34N 50°58' E 001°51'1716.6
2017-Jan-19 05:33N 51°05' E 001°26'5 4.7
2017-Jan-19 04:33N 51°07' E 001°20'8 8.5
2017-Jan-19 03:34N 51°04' E 001°32'1313.4
2017-Jan-19 02:33N 50°58' E 001°52'0 0.0
2017-Jan-19 01:33N 50°58' E 001°52'0 0.0
2017-Jan-19 00:34N 50°58' E 001°52'0 0.0
2017-Jan-18 23:33N 50°58' E 001°52'0 0.0
2017-Jan-18 22:33N 50°58' E 001°52'0 0.0
2017-Jan-18 21:33N 50°58' E 001°52'1111.4
2017-Jan-18 20:33N 51°01' E 001°34'1111.0
2017-Jan-18 19:33N 51°07' E 001°20'7 7.0
2017-Jan-18 18:33N 51°05' E 001°30'1514.5
2017-Jan-18 17:33N 50°58' E 001°51'4 3.6
2017-Jan-18 16:33N 50°58' E 001°45'1818.5
2017-Jan-18 15:34N 51°07' E 001°20'0 0.0
2017-Jan-18 14:33N 51°07' E 001°20'1615.9
2017-Jan-18 13:33N 50°60' E 001°42'6 6.2
2017-Jan-18 12:33N 50°58' E 001°52'0 0.1
2017-Jan-18 11:33N 50°58' E 001°52'1515.3
2017-Jan-18 10:34N 51°03' E 001°29'7 6.8
2017-Jan-18 09:33N 51°07' E 001°20'9 9.2
2017-Jan-18 08:33N 51°03' E 001°33'1312.8
2017-Jan-18 07:33N 50°58' E 001°52'3 2.7
2017-Jan-18 06:33N 50°58' E 001°47'1818.0
2017-Jan-18 05:33N 51°07' E 001°22'2 1.6
2017-Jan-18 04:33N 51°07' E 001°20'6 5.7
2017-Jan-18 03:33N 51°05' E 001°28'1616.1
2017-Jan-18 02:34N 50°58' E 001°51'0 0.2
2017-Jan-18 01:33N 50°58' E 001°52'0 0.0
2017-Jan-18 00:33N 50°58' E 001°52'0 0.0
2017-Jan-17 23:33N 50°58' E 001°52'0 0.0
2017-Jan-17 22:33N 50°58' E 001°52'1 0.9
2017-Jan-17 21:33N 50°58' E 001°50'1616.3
2017-Jan-17 20:33N 51°04' E 001°26'5 4.9
2017-Jan-17 19:33N 51°07' E 001°20'1111.3
2017-Jan-17 18:33N 51°03' E 001°37'1110.7
2017-Jan-17 17:33N 50°58' E 001°52'4 3.6
2017-Jan-17 16:34N 50°58' E 001°46'1818.3
2017-Jan-17 15:33N 51°07' E 001°21'1 0.5
2017-Jan-17 14:33N 51°07' E 001°20'1111.4
2017-Jan-17 13:33N 51°02' E 001°36'1110.6
2017-Jan-17 12:33N 50°58' E 001°52'5 5.5
2017-Jan-17 11:33N 50°58' E 001°43'1717.3
2017-Jan-17 10:33N 51°07' E 001°20'0 0.0
2017-Jan-17 09:33N 51°07' E 001°20'1414.1
2017-Jan-17 08:33N 51°01' E 001°40'8 7.8
2017-Jan-17 07:33N 50°58' E 001°52'8 7.6
2017-Jan-17 06:34N 50°59' E 001°40'1515.0
2017-Jan-17 05:33N 51°07' E 001°20'0 0.2
2017-Jan-17 04:28N 51°07' E 001°20'910.1
2017-Jan-17 03:33N 51°04' E 001°34'1312.7
2017-Jan-17 02:33N 50°58' E 001°52'0 0.1
2017-Jan-17 01:33N 50°58' E 001°52'0 0.0
2017-Jan-17 00:33N 50°58' E 001°52'0 0.0
2017-Jan-16 23:33N 50°58' E 001°52'0 0.0
2017-Jan-16 22:33N 50°58' E 001°52'0 0.0
2017-Jan-16 21:33N 50°58' E 001°52'7 7.0
2017-Jan-16 20:33N 50°58' E 001°41'1615.7
2017-Jan-16 19:33N 51°07' E 001°20'0 0.1
2017-Jan-16 18:33N 51°07' E 001°20'1414.1
2017-Jan-16 17:34N 51°01' E 001°40'8 7.9
2017-Jan-16 16:33N 50°58' E 001°52'8 8.4
2017-Jan-16 15:33N 50°59' E 001°38'1414.1
2017-Jan-16 14:33N 51°07' E 001°20'4 3.9
2017-Jan-16 13:33N 51°06' E 001°26'1716.8
2017-Jan-16 12:33N 50°58' E 001°50'1 0.8
2017-Jan-16 11:33N 50°58' E 001°51'1514.8
2017-Jan-16 10:33N 51°02' E 001°28'7 7.4
2017-Jan-16 09:33N 51°07' E 001°20'8 8.4
2017-Jan-16 08:34N 51°03' E 001°32'1413.7
2017-Jan-16 07:34N 50°58' E 001°52'0 0.0
2017-Jan-16 06:34N 50°58' E 001°52'0 0.0
2017-Jan-16 05:34N 50°58' E 001°52'0 0.0
2017-Jan-16 04:33N 50°58' E 001°52'0 0.0
2017-Jan-16 03:34N 50°58' E 001°52'0 0.0
2017-Jan-16 02:34N 50°58' E 001°52'0 0.0
2017-Jan-16 01:34N 50°58' E 001°52'0 0.0
2017-Jan-16 00:34N 50°58' E 001°52'0 0.0
2017-Jan-15 23:34N 50°58' E 001°52'0 0.0
2017-Jan-15 22:33N 50°58' E 001°52'0 0.0
2017-Jan-15 21:34N 50°58' E 001°52'1 1.3
2017-Jan-15 20:33N 50°58' E 001°50'1514.5
2017-Jan-15 19:33N 51°03' E 001°28'6 6.4
2017-Jan-15 18:33N 51°07' E 001°20'1313.1
2017-Jan-15 17:33N 51°01' E 001°38'9 8.7
2017-Jan-15 16:33N 50°58' E 001°51'1010.0
2017-Jan-15 15:33N 51°00' E 001°35'1212.0
2017-Jan-15 14:33N 51°07' E 001°20'6 6.0
2017-Jan-15 13:33N 51°05' E 001°29'1414.3
2017-Jan-15 12:33N 50°58' E 001°49'1 1.3
2017-Jan-15 11:33N 50°58' E 001°51'1514.5
2017-Jan-15 10:33N 51°04' E 001°30'7 7.0
2017-Jan-15 09:33N 51°07' E 001°20'1010.5
2017-Jan-15 08:33N 51°02' E 001°35'1111.2
2017-Jan-15 07:33N 50°58' E 001°51'0 0.5
2017-Jan-15 06:33N 50°58' E 001°52'0 0.0
2017-Jan-15 05:33N 50°58' E 001°52'0 0.0
2017-Jan-15 04:33N 50°58' E 001°52'0 0.0
2017-Jan-15 03:33N 50°58' E 001°52'0 0.0
2017-Jan-15 02:33N 50°58' E 001°52'0 0.0
2017-Jan-15 01:33N 50°58' E 001°52'0 0.0
2017-Jan-15 00:33N 50°58' E 001°52'0 0.0
2017-Jan-14 23:33N 50°58' E 001°52'0 0.0
2017-Jan-14 22:33N 50°58' E 001°52'0 0.0
2017-Jan-14 21:33N 50°58' E 001°52'1 1.3
2017-Jan-14 20:33N 50°58' E 001°50'1413.8
2017-Jan-14 19:33N 51°03' E 001°29'7 7.0
2017-Jan-14 18:33N 51°07' E 001°20'1313.3
2017-Jan-14 17:33N 51°02' E 001°39'9 8.5
2017-Jan-14 16:33N 50°58' E 001°51'1211.6
2017-Jan-14 15:34N 51°01' E 001°33'1110.3
2017-Jan-14 14:32N 51°07' E 001°20'7 7.5
2017-Jan-14 13:33N 51°06' E 001°31'1514.5
2017-Jan-14 12:33N 50°58' E 001°51'0 0.2
2017-Jan-14 11:33N 50°58' E 001°51'1717.2
2017-Jan-14 10:33N 51°05' E 001°26'5 4.7
2017-Jan-14 09:33N 51°07' E 001°20'1312.8
2017-Jan-14 08:33N 51°01' E 001°38'9 9.2
2017-Jan-14 07:33N 50°58' E 001°52'6 5.8
2017-Jan-14 06:34N 50°58' E 001°42'1716.8
2017-Jan-14 05:33N 51°07' E 001°20'0 0.0
2017-Jan-14 04:33N 51°07' E 001°20'6 6.4
2017-Jan-14 03:33N 51°05' E 001°29'15 3.8
2017-Jan-13 23:33N 50°58' E 001°51'7 6.9
2017-Jan-13 22:33N 50°58' E 001°40'1615.7
2017-Jan-13 21:33N 51°07' E 001°20'1 1.3
2017-Jan-13 20:34N 51°07' E 001°22'1817.8
2017-Jan-13 19:33N 50°58' E 001°47'3 3.2
2017-Jan-13 18:33N 50°58' E 001°52'1211.6
2017-Jan-13 17:33N 51°01' E 001°34'  

Dump ship's entire track history